Gill, Massachusetts
Current Conditions -  °F | °C
As of 7:52 AM on Friday 24 Oct 2014 (Local Time) from KORE Reporting Station
Light Rain Light Rain  
Wind Chill: 41°   Ceiling: 1900
Heat Index: 45°   Visibility: 10mi
Dew Point: 43°   Wind: 8mph
Humidity: 93%   Direction: 320°NW
Pressure: 29.75"   Gusts: NA
Location:  42.6787°N, 72.4874°W
Report Text: KORE 241152Z AUTO 32007KT 10SM -RA FEW013 BKN019 OVC042 07/06 A2975 RMK AO2 SLP076 P0002 60013 70108 T00720061 10089 20072 51008
Loading
Personal Weather Stations






























Interactive Weather Map
Tropical Storm Tracking
New forecast layout! Learn more

10-Day Weather Forecast

Advertisements
Track Severe Weather on mobile